< < Back
Terminal Aerodrome Forecast


Current Version              Previous Versions:   1  2  3  4  5  6  7  8  9  

Terminal Aerodrome Forecast

917
FTUS44 KMOB 310547
TAFMOB
TAF
KMOB 310547Z 3106/0106 VRB05KT P6SM SKC
     FM311800 05010G17KT P6SM SCT250
     FM010000 VRB05KT P6SM SKC=

Latest METAR

798
SAUS80 KWBC 312100 CCA
MTRMOB
METAR KMOB 312056Z 03008KT 10SM BKN055 33/21 A2983 RMK AO2 SLP098
T03330206 56021


USA.gov is the U.S. government's official web portal to all federal, state and local government web resources and services.